sensor_id;sensor_type;location;lat;lon;timestamp;temperature;humidity
66740;DHT22;53653;52.188;8.602;2022-10-16T00:01:09;12.85;90.16
66740;DHT22;53653;52.188;8.602;2022-10-16T00:03:37;12.85;90.36
66740;DHT22;53653;52.188;8.602;2022-10-16T00:06:03;12.88;90.43
66740;DHT22;53653;52.188;8.602;2022-10-16T00:08:29;12.90;90.59
66740;DHT22;53653;52.188;8.602;2022-10-16T00:11:12;12.95;90.76
66740;DHT22;53653;52.188;8.602;2022-10-16T00:13:40;12.96;90.98
66740;DHT22;53653;52.188;8.602;2022-10-16T00:16:08;12.97;90.61
66740;DHT22;53653;52.188;8.602;2022-10-16T00:18:34;12.99;90.69
66740;DHT22;53653;52.188;8.602;2022-10-16T00:21:11;13.00;90.51
66740;DHT22;53653;52.188;8.602;2022-10-16T00:23:59;13.03;90.73
66740;DHT22;53653;52.188;8.602;2022-10-16T00:26:27;13.04;90.60
66740;DHT22;53653;52.188;8.602;2022-10-16T00:28:53;13.09;91.00
66740;DHT22;53653;52.188;8.602;2022-10-16T00:31:21;13.10;90.74
66740;DHT22;53653;52.188;8.602;2022-10-16T00:33:48;13.16;90.84
66740;DHT22;53653;52.188;8.602;2022-10-16T00:36:18;13.16;90.83
66740;DHT22;53653;52.188;8.602;2022-10-16T00:38:45;13.19;90.74
66740;DHT22;53653;52.188;8.602;2022-10-16T00:41:16;13.21;90.59
66740;DHT22;53653;52.188;8.602;2022-10-16T00:46:16;13.21;90.46
66740;DHT22;53653;52.188;8.602;2022-10-16T00:48:48;13.23;90.44
66740;DHT22;53653;52.188;8.602;2022-10-16T00:51:14;13.20;90.40
66740;DHT22;53653;52.188;8.602;2022-10-16T00:53:40;13.24;90.57
66740;DHT22;53653;52.188;8.602;2022-10-16T00:56:06;13.26;90.45
66740;DHT22;53653;52.188;8.602;2022-10-16T00:58:34;13.21;90.39
66740;DHT22;53653;52.188;8.602;2022-10-16T01:01:00;13.23;90.49
66740;DHT22;53653;52.188;8.602;2022-10-16T01:03:36;13.19;90.41
66740;DHT22;53653;52.188;8.602;2022-10-16T01:06:24;13.11;90.60
66740;DHT22;53653;52.188;8.602;2022-10-16T01:11:29;12.93;91.36
66740;DHT22;53653;52.188;8.602;2022-10-16T01:14:00;12.90;91.58
66740;DHT22;53653;52.188;8.602;2022-10-16T01:16:43;12.86;91.51
66740;DHT22;53653;52.188;8.602;2022-10-16T01:19:26;12.83;91.96
66740;DHT22;53653;52.188;8.602;2022-10-16T01:21:58;12.82;91.90
66740;DHT22;53653;52.188;8.602;2022-10-16T01:24:33;12.82;91.78
66740;DHT22;53653;52.188;8.602;2022-10-16T01:30:26;12.69;92.61
66740;DHT22;53653;52.188;8.602;2022-10-16T01:35:34;12.65;92.93
66740;DHT22;53653;52.188;8.602;2022-10-16T01:38:32;12.65;93.21
66740;DHT22;53653;52.188;8.602;2022-10-16T01:41:21;12.62;93.13
66740;DHT22;53653;52.188;8.602;2022-10-16T01:46:26;12.68;92.96
66740;DHT22;53653;52.188;8.602;2022-10-16T01:48:53;12.69;92.80
66740;DHT22;53653;52.188;8.602;2022-10-16T01:51:22;12.69;92.99
66740;DHT22;53653;52.188;8.602;2022-10-16T01:53:51;12.72;92.78
66740;DHT22;53653;52.188;8.602;2022-10-16T01:56:18;12.72;93.02
66740;DHT22;53653;52.188;8.602;2022-10-16T01:59:12;12.71;93.15
66740;DHT22;53653;52.188;8.602;2022-10-16T02:01:43;12.71;93.12
66740;DHT22;53653;52.188;8.602;2022-10-16T02:04:26;12.71;93.18
66740;DHT22;53653;52.188;8.602;2022-10-16T02:06:54;12.73;93.20
66740;DHT22;53653;52.188;8.602;2022-10-16T02:09:23;12.72;93.22
66740;DHT22;53653;52.188;8.602;2022-10-16T02:11:52;12.71;93.17
66740;DHT22;53653;52.188;8.602;2022-10-16T02:14:21;12.71;93.22
66740;DHT22;53653;52.188;8.602;2022-10-16T02:16:50;12.68;93.39
66740;DHT22;53653;52.188;8.602;2022-10-16T02:19:17;12.76;93.30
66740;DHT22;53653;52.188;8.602;2022-10-16T02:21:51;12.73;93.18
66740;DHT22;53653;52.188;8.602;2022-10-16T02:32:58;12.66;93.49
66740;DHT22;53653;52.188;8.602;2022-10-16T02:35:24;12.62;93.58
66740;DHT22;53653;52.188;8.602;2022-10-16T02:37:51;12.58;93.54
66740;DHT22;53653;52.188;8.602;2022-10-16T02:40:17;12.58;93.68
66740;DHT22;53653;52.188;8.602;2022-10-16T02:42:43;12.56;93.73
66740;DHT22;53653;52.188;8.602;2022-10-16T02:45:10;12.53;93.71
66740;DHT22;53653;52.188;8.602;2022-10-16T02:47:36;12.48;93.93
66740;DHT22;53653;52.188;8.602;2022-10-16T02:50:01;12.48;93.93
66740;DHT22;53653;52.188;8.602;2022-10-16T02:52:27;12.46;94.01
66740;DHT22;53653;52.188;8.602;2022-10-16T02:54:52;12.44;94.10
66740;DHT22;53653;52.188;8.602;2022-10-16T02:57:18;12.41;94.16
66740;DHT22;53653;52.188;8.602;2022-10-16T02:59:44;12.38;94.04
66740;DHT22;53653;52.188;8.602;2022-10-16T03:02:09;12.41;94.06
66740;DHT22;53653;52.188;8.602;2022-10-16T03:04:35;12.41;94.23
66740;DHT22;53653;52.188;8.602;2022-10-16T03:07:01;12.38;94.24
66740;DHT22;53653;52.188;8.602;2022-10-16T03:09:26;12.40;94.44
66740;DHT22;53653;52.188;8.602;2022-10-16T03:11:52;12.37;94.39
66740;DHT22;53653;52.188;8.602;2022-10-16T03:14:17;12.35;94.32
66740;DHT22;53653;52.188;8.602;2022-10-16T03:16:43;12.32;94.35
66740;DHT22;53653;52.188;8.602;2022-10-16T03:19:08;12.28;94.57
66740;DHT22;53653;52.188;8.602;2022-10-16T03:21:33;12.28;94.74
66740;DHT22;53653;52.188;8.602;2022-10-16T03:23:59;12.25;94.75
66740;DHT22;53653;52.188;8.602;2022-10-16T03:26:24;12.23;94.87
66740;DHT22;53653;52.188;8.602;2022-10-16T03:28:49;12.23;94.92
66740;DHT22;53653;52.188;8.602;2022-10-16T03:31:15;12.23;94.99
66740;DHT22;53653;52.188;8.602;2022-10-16T03:33:40;12.20;94.99
66740;DHT22;53653;52.188;8.602;2022-10-16T03:36:05;12.17;95.01
66740;DHT22;53653;52.188;8.602;2022-10-16T03:38:32;12.17;95.10
66740;DHT22;53653;52.188;8.602;2022-10-16T03:40:57;12.14;95.17
66740;DHT22;53653;52.188;8.602;2022-10-16T03:43:23;12.10;95.26
66740;DHT22;53653;52.188;8.602;2022-10-16T03:45:50;12.13;95.20
66740;DHT22;53653;52.188;8.602;2022-10-16T03:48:17;12.11;95.28
66740;DHT22;53653;52.188;8.602;2022-10-16T03:50:42;12.14;95.20
66740;DHT22;53653;52.188;8.602;2022-10-16T03:53:08;12.13;95.15
66740;DHT22;53653;52.188;8.602;2022-10-16T03:55:34;12.17;95.06
66740;DHT22;53653;52.188;8.602;2022-10-16T03:57:59;12.11;95.02
66740;DHT22;53653;52.188;8.602;2022-10-16T04:00:25;12.10;95.09
66740;DHT22;53653;52.188;8.602;2022-10-16T04:02:51;12.08;95.09
66740;DHT22;53653;52.188;8.602;2022-10-16T04:05:17;12.07;95.20
66740;DHT22;53653;52.188;8.602;2022-10-16T04:07:42;12.05;95.15
66740;DHT22;53653;52.188;8.602;2022-10-16T04:10:08;12.04;95.27
66740;DHT22;53653;52.188;8.602;2022-10-16T04:12:33;12.07;95.40
66740;DHT22;53653;52.188;8.602;2022-10-16T04:14:59;12.05;95.35
66740;DHT22;53653;52.188;8.602;2022-10-16T04:17:24;12.07;95.24
66740;DHT22;53653;52.188;8.602;2022-10-16T04:19:49;12.08;95.16
66740;DHT22;53653;52.188;8.602;2022-10-16T04:22:15;12.16;95.06
66740;DHT22;53653;52.188;8.602;2022-10-16T04:24:40;12.13;94.86
66740;DHT22;53653;52.188;8.602;2022-10-16T04:27:05;12.11;94.82
66740;DHT22;53653;52.188;8.602;2022-10-16T04:29:31;12.11;94.80
66740;DHT22;53653;52.188;8.602;2022-10-16T04:31:56;12.17;94.84
66740;DHT22;53653;52.188;8.602;2022-10-16T04:34:22;12.16;94.72
66740;DHT22;53653;52.188;8.602;2022-10-16T04:36:48;12.20;94.65
66740;DHT22;53653;52.188;8.602;2022-10-16T04:39:16;12.23;94.61
66740;DHT22;53653;52.188;8.602;2022-10-16T04:41:41;12.24;94.52
66740;DHT22;53653;52.188;8.602;2022-10-16T04:44:07;12.23;94.56
66740;DHT22;53653;52.188;8.602;2022-10-16T04:46:33;12.21;94.54
66740;DHT22;53653;52.188;8.602;2022-10-16T04:48:58;12.24;94.55
66740;DHT22;53653;52.188;8.602;2022-10-16T04:51:24;12.25;94.44
66740;DHT22;53653;52.188;8.602;2022-10-16T04:53:50;12.25;94.51
66740;DHT22;53653;52.188;8.602;2022-10-16T04:56:16;12.27;94.37
66740;DHT22;53653;52.188;8.602;2022-10-16T04:58:41;12.27;94.37
66740;DHT22;53653;52.188;8.602;2022-10-16T05:01:07;12.27;94.36
66740;DHT22;53653;52.188;8.602;2022-10-16T05:03:32;12.25;94.36
66740;DHT22;53653;52.188;8.602;2022-10-16T05:05:58;12.31;94.37
66740;DHT22;53653;52.188;8.602;2022-10-16T05:08:23;12.34;94.16
66740;DHT22;53653;52.188;8.602;2022-10-16T05:10:49;12.45;93.93
66740;DHT22;53653;52.188;8.602;2022-10-16T05:13:14;12.49;93.62
66740;DHT22;53653;52.188;8.602;2022-10-16T05:15:40;12.62;93.28
66740;DHT22;53653;52.188;8.602;2022-10-16T05:18:06;12.68;92.98
66740;DHT22;53653;52.188;8.602;2022-10-16T05:20:34;12.68;92.79
66740;DHT22;53653;52.188;8.602;2022-10-16T05:22:59;12.71;92.52
66740;DHT22;53653;52.188;8.602;2022-10-16T05:25:25;12.76;92.35
66740;DHT22;53653;52.188;8.602;2022-10-16T05:27:50;12.80;92.08
66740;DHT22;53653;52.188;8.602;2022-10-16T05:30:17;12.86;91.70
66740;DHT22;53653;52.188;8.602;2022-10-16T05:32:49;12.88;91.56
66740;DHT22;53653;52.188;8.602;2022-10-16T05:35:16;12.90;91.47
66740;DHT22;53653;52.188;8.602;2022-10-16T05:37:42;12.95;91.16
66740;DHT22;53653;52.188;8.602;2022-10-16T05:40:08;12.95;91.10
66740;DHT22;53653;52.188;8.602;2022-10-16T05:42:34;12.95;91.06
66740;DHT22;53653;52.188;8.602;2022-10-16T05:44:59;12.96;91.03
66740;DHT22;53653;52.188;8.602;2022-10-16T05:47:25;12.96;91.00
66740;DHT22;53653;52.188;8.602;2022-10-16T05:49:51;12.97;90.87
66740;DHT22;53653;52.188;8.602;2022-10-16T05:52:16;12.99;90.68
66740;DHT22;53653;52.188;8.602;2022-10-16T05:54:42;12.96;90.60
66740;DHT22;53653;52.188;8.602;2022-10-16T05:57:08;12.96;90.62
66740;DHT22;53653;52.188;8.602;2022-10-16T05:59:34;13.06;90.45
66740;DHT22;53653;52.188;8.602;2022-10-16T06:01:59;13.13;90.06
66740;DHT22;53653;52.188;8.602;2022-10-16T06:04:25;13.11;90.10
66740;DHT22;53653;52.188;8.602;2022-10-16T06:06:50;13.17;89.77
66740;DHT22;53653;52.188;8.602;2022-10-16T06:09:16;13.20;89.68
66740;DHT22;53653;52.188;8.602;2022-10-16T06:11:41;13.28;89.42
66740;DHT22;53653;52.188;8.602;2022-10-16T06:14:08;13.34;89.23
66740;DHT22;53653;52.188;8.602;2022-10-16T06:16:35;13.33;89.07
66740;DHT22;53653;52.188;8.602;2022-10-16T06:19:02;13.38;89.01
66740;DHT22;53653;52.188;8.602;2022-10-16T06:21:29;13.40;88.87
66740;DHT22;53653;52.188;8.602;2022-10-16T06:23:55;13.47;88.71
66740;DHT22;53653;52.188;8.602;2022-10-16T06:26:24;13.48;88.53
66740;DHT22;53653;52.188;8.602;2022-10-16T06:28:49;13.55;88.35
66740;DHT22;53653;52.188;8.602;2022-10-16T06:31:16;13.69;87.68
66740;DHT22;53653;52.188;8.602;2022-10-16T06:33:41;13.86;87.25
66740;DHT22;53653;52.188;8.602;2022-10-16T06:36:10;14.15;86.60
66740;DHT22;53653;52.188;8.602;2022-10-16T06:38:36;14.47;84.82
66740;DHT22;53653;52.188;8.602;2022-10-16T06:41:02;14.54;84.25
66740;DHT22;53653;52.188;8.602;2022-10-16T06:43:29;14.53;84.42
66740;DHT22;53653;52.188;8.602;2022-10-16T06:45:59;14.74;83.94
66740;DHT22;53653;52.188;8.602;2022-10-16T06:48:25;14.60;83.84
66740;DHT22;53653;52.188;8.602;2022-10-16T06:51:11;14.43;84.23
66740;DHT22;53653;52.188;8.602;2022-10-16T06:53:43;14.41;84.57
66740;DHT22;53653;52.188;8.602;2022-10-16T06:56:13;14.70;83.52
66740;DHT22;53653;52.188;8.602;2022-10-16T06:58:40;15.16;82.23
66740;DHT22;53653;52.188;8.602;2022-10-16T07:01:05;15.22;81.31
66740;DHT22;53653;52.188;8.602;2022-10-16T07:03:31;15.12;81.46
66740;DHT22;53653;52.188;8.602;2022-10-16T07:05:57;14.88;82.38
66740;DHT22;53653;52.188;8.602;2022-10-16T07:08:26;14.95;82.69
66740;DHT22;53653;52.188;8.602;2022-10-16T07:10:59;15.53;81.17
66740;DHT22;53653;52.188;8.602;2022-10-16T07:13:25;15.79;79.54
66740;DHT22;53653;52.188;8.602;2022-10-16T07:15:50;16.00;78.80
66740;DHT22;53653;52.188;8.602;2022-10-16T07:18:15;16.05;78.48
66740;DHT22;53653;52.188;8.602;2022-10-16T07:20:41;16.11;78.28
66740;DHT22;53653;52.188;8.602;2022-10-16T07:23:06;16.25;78.09
66740;DHT22;53653;52.188;8.602;2022-10-16T07:25:32;16.51;77.07
66740;DHT22;53653;52.188;8.602;2022-10-16T07:27:57;16.79;76.22
66740;DHT22;53653;52.188;8.602;2022-10-16T07:30:23;16.87;75.59
66740;DHT22;53653;52.188;8.602;2022-10-16T07:32:51;16.90;75.94
66740;DHT22;53653;52.188;8.602;2022-10-16T07:35:16;16.87;75.15
66740;DHT22;53653;52.188;8.602;2022-10-16T07:37:46;16.70;75.70
66740;DHT22;53653;52.188;8.602;2022-10-16T07:40:11;16.76;75.66
66740;DHT22;53653;52.188;8.602;2022-10-16T07:42:37;16.80;75.55
66740;DHT22;53653;52.188;8.602;2022-10-16T07:45:03;16.60;75.97
66740;DHT22;53653;52.188;8.602;2022-10-16T07:47:28;16.25;77.31
66740;DHT22;53653;52.188;8.602;2022-10-16T07:49:54;16.01;78.26
66740;DHT22;53653;52.188;8.602;2022-10-16T07:52:19;15.86;78.79
66740;DHT22;53653;52.188;8.602;2022-10-16T07:54:45;16.08;78.20
66740;DHT22;53653;52.188;8.602;2022-10-16T07:57:10;16.01;78.37
66740;DHT22;53653;52.188;8.602;2022-10-16T07:59:35;16.14;78.01
66740;DHT22;53653;52.188;8.602;2022-10-16T08:02:01;16.41;77.24
66740;DHT22;53653;52.188;8.602;2022-10-16T08:04:26;16.79;76.16
66740;DHT22;53653;52.188;8.602;2022-10-16T08:06:52;17.00;74.78
66740;DHT22;53653;52.188;8.602;2022-10-16T08:09:19;17.17;74.50
66740;DHT22;53653;52.188;8.602;2022-10-16T08:11:45;17.28;73.70
66740;DHT22;53653;52.188;8.602;2022-10-16T08:14:10;17.51;73.18
66740;DHT22;53653;52.188;8.602;2022-10-16T08:16:35;17.72;72.92
66740;DHT22;53653;52.188;8.602;2022-10-16T08:19:01;17.75;72.72
66740;DHT22;53653;52.188;8.602;2022-10-16T08:21:26;17.95;72.55
66740;DHT22;53653;52.188;8.602;2022-10-16T08:23:53;17.93;72.18
66740;DHT22;53653;52.188;8.602;2022-10-16T08:26:18;17.89;71.91
66740;DHT22;53653;52.188;8.602;2022-10-16T08:28:44;18.03;71.94
66740;DHT22;53653;52.188;8.602;2022-10-16T08:31:10;17.97;72.11
66740;DHT22;53653;52.188;8.602;2022-10-16T08:33:37;17.82;71.98
66740;DHT22;53653;52.188;8.602;2022-10-16T08:36:03;17.69;72.55
66740;DHT22;53653;52.188;8.602;2022-10-16T08:38:29;17.52;72.73
66740;DHT22;53653;52.188;8.602;2022-10-16T08:41:02;17.75;72.51
66740;DHT22;53653;52.188;8.602;2022-10-16T08:43:50;17.92;71.83
66740;DHT22;53653;52.188;8.602;2022-10-16T08:49:25;18.18;71.42
66740;DHT22;53653;52.188;8.602;2022-10-16T08:51:51;18.37;70.84
66740;DHT22;53653;52.188;8.602;2022-10-16T08:56:55;18.41;70.27
66740;DHT22;53653;52.188;8.602;2022-10-16T08:59:21;18.45;70.47
66740;DHT22;53653;52.188;8.602;2022-10-16T09:01:50;18.76;69.14
66740;DHT22;53653;52.188;8.602;2022-10-16T09:04:25;19.16;68.80
66740;DHT22;53653;52.188;8.602;2022-10-16T09:07:08;18.62;69.65
66740;DHT22;53653;52.188;8.602;2022-10-16T09:12:50;18.32;70.33
66740;DHT22;53653;52.188;8.602;2022-10-16T09:15:31;18.48;69.89
66740;DHT22;53653;52.188;8.602;2022-10-16T09:20:49;18.32;70.57
66740;DHT22;53653;52.188;8.602;2022-10-16T09:23:24;18.26;69.90
66740;DHT22;53653;52.188;8.602;2022-10-16T09:25:50;18.09;70.64
66740;DHT22;53653;52.188;8.602;2022-10-16T09:28:17;18.32;70.38
66740;DHT22;53653;52.188;8.602;2022-10-16T09:30:44;18.79;69.06
66740;DHT22;53653;52.188;8.602;2022-10-16T09:33:11;18.95;67.72
66740;DHT22;53653;52.188;8.602;2022-10-16T09:35:43;19.13;66.47
66740;DHT22;53653;52.188;8.602;2022-10-16T09:38:09;19.40;66.44
66740;DHT22;53653;52.188;8.602;2022-10-16T09:40:45;19.88;65.31
66740;DHT22;53653;52.188;8.602;2022-10-16T09:43:26;19.57;65.61
66740;DHT22;53653;52.188;8.602;2022-10-16T09:46:01;19.26;65.36
66740;DHT22;53653;52.188;8.602;2022-10-16T09:48:32;19.30;64.90
66740;DHT22;53653;52.188;8.602;2022-10-16T09:51:01;18.98;66.08
66740;DHT22;53653;52.188;8.602;2022-10-16T09:53:47;19.36;64.49
66740;DHT22;53653;52.188;8.602;2022-10-16T09:58:54;19.67;64.48
66740;DHT22;53653;52.188;8.602;2022-10-16T10:01:24;19.61;64.19
66740;DHT22;53653;52.188;8.602;2022-10-16T10:03:50;19.77;63.71
66740;DHT22;53653;52.188;8.602;2022-10-16T10:06:29;20.09;63.74
66740;DHT22;53653;52.188;8.602;2022-10-16T10:09:22;20.32;62.54
66740;DHT22;53653;52.188;8.602;2022-10-16T10:11:55;20.35;62.17
66740;DHT22;53653;52.188;8.602;2022-10-16T10:19:30;19.97;62.13
66740;DHT22;53653;52.188;8.602;2022-10-16T10:22:15;20.19;61.59
66740;DHT22;53653;52.188;8.602;2022-10-16T10:24:41;20.42;60.93
66740;DHT22;53653;52.188;8.602;2022-10-16T10:27:15;20.46;60.93
66740;DHT22;53653;52.188;8.602;2022-10-16T10:29:59;20.08;61.32
66740;DHT22;53653;52.188;8.602;2022-10-16T10:32:33;19.70;62.63
66740;DHT22;53653;52.188;8.602;2022-10-16T10:45:45;18.69;65.28
66740;DHT22;53653;52.188;8.602;2022-10-16T10:50:56;18.82;64.86
66740;DHT22;53653;52.188;8.602;2022-10-16T11:01:58;20.26;60.41
66740;DHT22;53653;52.188;8.602;2022-10-16T11:07:24;20.79;58.90
66740;DHT22;53653;52.188;8.602;2022-10-16T11:09:53;21.07;57.91
66740;DHT22;53653;52.188;8.602;2022-10-16T11:12:28;21.17;57.67
66740;DHT22;53653;52.188;8.602;2022-10-16T11:17:38;21.46;57.15
66740;DHT22;53653;52.188;8.602;2022-10-16T11:20:40;21.48;56.37
66740;DHT22;53653;52.188;8.602;2022-10-16T11:23:56;21.34;55.75
66740;DHT22;53653;52.188;8.602;2022-10-16T11:26:05;21.25;56.38
66740;DHT22;53653;52.188;8.602;2022-10-16T11:28:45;21.66;55.79
66740;DHT22;53653;52.188;8.602;2022-10-16T11:36:56;23.28;50.61
66740;DHT22;53653;52.188;8.602;2022-10-16T11:39:31;23.39;50.68
66740;DHT22;53653;52.188;8.602;2022-10-16T11:50:29;21.30;54.81
66740;DHT22;53653;52.188;8.602;2022-10-16T11:55:50;20.25;57.94
66740;DHT22;53653;52.188;8.602;2022-10-16T12:06:35;21.08;56.50
66740;DHT22;53653;52.188;8.602;2022-10-16T12:09:03;21.11;54.66
66740;DHT22;53653;52.188;8.602;2022-10-16T12:19:17;20.74;56.19
66740;DHT22;53653;52.188;8.602;2022-10-16T12:21:43;20.28;57.44
66740;DHT22;53653;52.188;8.602;2022-10-16T12:24:39;20.97;55.80
66740;DHT22;53653;52.188;8.602;2022-10-16T12:27:26;20.79;54.75
66740;DHT22;53653;52.188;8.602;2022-10-16T12:30:04;21.03;54.56
66740;DHT22;53653;52.188;8.602;2022-10-16T12:32:36;21.03;54.89
66740;DHT22;53653;52.188;8.602;2022-10-16T12:35:03;21.15;54.22
66740;DHT22;53653;52.188;8.602;2022-10-16T12:37:37;21.51;53.04
66740;DHT22;53653;52.188;8.602;2022-10-16T12:40:15;21.58;53.13
66740;DHT22;53653;52.188;8.602;2022-10-16T12:42:41;21.61;53.64
66740;DHT22;53653;52.188;8.602;2022-10-16T12:45:33;21.42;53.88
66740;DHT22;53653;52.188;8.602;2022-10-16T12:48:01;21.71;53.82
66740;DHT22;53653;52.188;8.602;2022-10-16T12:50:38;21.75;53.12
66740;DHT22;53653;52.188;8.602;2022-10-16T12:53:18;21.80;52.74
66740;DHT22;53653;52.188;8.602;2022-10-16T12:56:24;21.51;52.36
66740;DHT22;53653;52.188;8.602;2022-10-16T13:01:59;21.18;53.73
66740;DHT22;53653;52.188;8.602;2022-10-16T13:07:48;20.70;54.32
66740;DHT22;53653;52.188;8.602;2022-10-16T13:10:28;20.57;54.75
66740;DHT22;53653;52.188;8.602;2022-10-16T13:18:31;20.04;55.12
66740;DHT22;53653;52.188;8.602;2022-10-16T13:24:01;19.47;57.27
66740;DHT22;53653;52.188;8.602;2022-10-16T13:27:32;19.61;57.31
66740;DHT22;53653;52.188;8.602;2022-10-16T13:29:33;19.74;57.70
66740;DHT22;53653;52.188;8.602;2022-10-16T13:32:00;20.05;57.28
66740;DHT22;53653;52.188;8.602;2022-10-16T13:34:27;20.30;56.71
66740;DHT22;53653;52.188;8.602;2022-10-16T13:36:53;20.32;55.50
66740;DHT22;53653;52.188;8.602;2022-10-16T13:39:29;20.35;55.45
66740;DHT22;53653;52.188;8.602;2022-10-16T13:42:22;20.62;54.87
66740;DHT22;53653;52.188;8.602;2022-10-16T13:44:50;20.59;54.96
66740;DHT22;53653;52.188;8.602;2022-10-16T13:47:18;20.57;55.66
66740;DHT22;53653;52.188;8.602;2022-10-16T13:49:45;20.55;56.03
66740;DHT22;53653;52.188;8.602;2022-10-16T13:52:20;20.56;56.42
66740;DHT22;53653;52.188;8.602;2022-10-16T13:54:46;20.53;55.84
66740;DHT22;53653;52.188;8.602;2022-10-16T13:57:15;20.56;56.31
66740;DHT22;53653;52.188;8.602;2022-10-16T13:59:41;20.56;55.78
66740;DHT22;53653;52.188;8.602;2022-10-16T14:02:28;20.55;56.39
66740;DHT22;53653;52.188;8.602;2022-10-16T14:04:57;20.39;56.42
66740;DHT22;53653;52.188;8.602;2022-10-16T14:07:28;20.14;57.46
66740;DHT22;53653;52.188;8.602;2022-10-16T14:09:54;20.28;57.79
66740;DHT22;53653;52.188;8.602;2022-10-16T14:12:21;20.42;56.98
66740;DHT22;53653;52.188;8.602;2022-10-16T14:14:49;20.39;57.18
66740;DHT22;53653;52.188;8.602;2022-10-16T14:17:30;20.39;56.45
66740;DHT22;53653;52.188;8.602;2022-10-16T14:19:58;20.36;57.80
66740;DHT22;53653;52.188;8.602;2022-10-16T14:22:33;20.28;57.95
66740;DHT22;53653;52.188;8.602;2022-10-16T14:24:59;20.19;58.27
66740;DHT22;53653;52.188;8.602;2022-10-16T14:27:32;20.33;57.45
66740;DHT22;53653;52.188;8.602;2022-10-16T14:32:41;20.19;58.19
66740;DHT22;53653;52.188;8.602;2022-10-16T14:35:31;20.16;57.89
66740;DHT22;53653;52.188;8.602;2022-10-16T14:37:59;20.08;57.93
66740;DHT22;53653;52.188;8.602;2022-10-16T14:40:31;20.11;58.76
66740;DHT22;53653;52.188;8.602;2022-10-16T14:42:57;20.02;59.02
66740;DHT22;53653;52.188;8.602;2022-10-16T14:45:26;20.11;58.67
66740;DHT22;53653;52.188;8.602;2022-10-16T14:47:57;20.02;58.39
66740;DHT22;53653;52.188;8.602;2022-10-16T14:50:23;19.98;58.36
66740;DHT22;53653;52.188;8.602;2022-10-16T14:52:49;20.04;58.59
66740;DHT22;53653;52.188;8.602;2022-10-16T14:55:15;20.02;58.36
66740;DHT22;53653;52.188;8.602;2022-10-16T14:57:42;19.97;58.91
66740;DHT22;53653;52.188;8.602;2022-10-16T15:00:21;20.01;58.69
66740;DHT22;53653;52.188;8.602;2022-10-16T15:02:48;19.88;59.10
66740;DHT22;53653;52.188;8.602;2022-10-16T15:05:21;19.89;58.61
66740;DHT22;53653;52.188;8.602;2022-10-16T15:07:48;19.87;58.14
66740;DHT22;53653;52.188;8.602;2022-10-16T15:10:18;19.67;59.10
66740;DHT22;53653;52.188;8.602;2022-10-16T15:12:45;19.73;58.95
66740;DHT22;53653;52.188;8.602;2022-10-16T15:17:52;19.70;59.05
66740;DHT22;53653;52.188;8.602;2022-10-16T15:20:19;19.67;59.33
66740;DHT22;53653;52.188;8.602;2022-10-16T15:22:45;19.57;59.58
66740;DHT22;53653;52.188;8.602;2022-10-16T15:25:25;19.46;59.78
66740;DHT22;53653;52.188;8.602;2022-10-16T15:27:52;19.27;60.61
66740;DHT22;53653;52.188;8.602;2022-10-16T15:30:43;19.30;61.28
66740;DHT22;53653;52.188;8.602;2022-10-16T15:33:16;19.24;60.74
66740;DHT22;53653;52.188;8.602;2022-10-16T15:35:42;19.15;61.30
66740;DHT22;53653;52.188;8.602;2022-10-16T15:38:14;19.05;61.96
66740;DHT22;53653;52.188;8.602;2022-10-16T15:40:41;19.02;61.83
66740;DHT22;53653;52.188;8.602;2022-10-16T15:43:07;18.87;62.09
66740;DHT22;53653;52.188;8.602;2022-10-16T15:45:32;18.78;62.30
66740;DHT22;53653;52.188;8.602;2022-10-16T15:47:58;18.67;62.71
66740;DHT22;53653;52.188;8.602;2022-10-16T15:50:23;18.55;63.35
66740;DHT22;53653;52.188;8.602;2022-10-16T15:52:50;18.40;63.70
66740;DHT22;53653;52.188;8.602;2022-10-16T15:55:16;18.30;64.34
66740;DHT22;53653;52.188;8.602;2022-10-16T15:57:44;18.20;64.74
66740;DHT22;53653;52.188;8.602;2022-10-16T16:00:12;18.14;65.19
66740;DHT22;53653;52.188;8.602;2022-10-16T16:02:39;18.06;65.65
66740;DHT22;53653;52.188;8.602;2022-10-16T16:05:06;17.99;65.85
66740;DHT22;53653;52.188;8.602;2022-10-16T16:07:37;17.97;65.85
66740;DHT22;53653;52.188;8.602;2022-10-16T16:10:04;18.00;65.73
66740;DHT22;53653;52.188;8.602;2022-10-16T16:12:30;18.00;65.71
66740;DHT22;53653;52.188;8.602;2022-10-16T16:14:55;17.96;66.03
66740;DHT22;53653;52.188;8.602;2022-10-16T16:17:21;18.00;66.24
66740;DHT22;53653;52.188;8.602;2022-10-16T16:19:46;17.99;66.03
66740;DHT22;53653;52.188;8.602;2022-10-16T16:22:12;17.96;66.45
66740;DHT22;53653;52.188;8.602;2022-10-16T16:24:37;17.87;67.10
66740;DHT22;53653;52.188;8.602;2022-10-16T16:27:03;17.74;68.40
66740;DHT22;53653;52.188;8.602;2022-10-16T16:29:28;17.56;69.47
66740;DHT22;53653;52.188;8.602;2022-10-16T16:31:53;17.28;70.11
66740;DHT22;53653;52.188;8.602;2022-10-16T16:34:26;17.17;70.30
66740;DHT22;53653;52.188;8.602;2022-10-16T16:36:53;17.02;71.50
66740;DHT22;53653;52.188;8.602;2022-10-16T16:39:19;16.93;71.91
66740;DHT22;53653;52.188;8.602;2022-10-16T16:41:44;16.91;71.96
66740;DHT22;53653;52.188;8.602;2022-10-16T16:44:14;16.86;72.26
66740;DHT22;53653;52.188;8.602;2022-10-16T16:46:40;16.81;72.63
66740;DHT22;53653;52.188;8.602;2022-10-16T16:49:12;16.76;72.88
66740;DHT22;53653;52.188;8.602;2022-10-16T16:51:37;16.76;73.03
66740;DHT22;53653;52.188;8.602;2022-10-16T16:54:03;16.81;72.80
66740;DHT22;53653;52.188;8.602;2022-10-16T16:56:29;16.84;72.55
66740;DHT22;53653;52.188;8.602;2022-10-16T16:58:55;16.87;72.40
66740;DHT22;53653;52.188;8.602;2022-10-16T17:01:24;16.80;72.87
66740;DHT22;53653;52.188;8.602;2022-10-16T17:03:51;16.60;73.10
66740;DHT22;53653;52.188;8.602;2022-10-16T17:06:19;16.51;73.53
66740;DHT22;53653;52.188;8.602;2022-10-16T17:08:45;16.51;73.61
66740;DHT22;53653;52.188;8.602;2022-10-16T17:11:19;16.52;73.18
66740;DHT22;53653;52.188;8.602;2022-10-16T17:13:44;16.58;73.23
66740;DHT22;53653;52.188;8.602;2022-10-16T17:16:10;16.59;73.04
66740;DHT22;53653;52.188;8.602;2022-10-16T17:18:36;16.62;72.69
66740;DHT22;53653;52.188;8.602;2022-10-16T17:21:03;16.62;72.67
66740;DHT22;53653;52.188;8.602;2022-10-16T17:23:30;16.56;73.13
66740;DHT22;53653;52.188;8.602;2022-10-16T17:25:55;16.52;73.45
66740;DHT22;53653;52.188;8.602;2022-10-16T17:28:21;16.42;74.00
66740;DHT22;53653;52.188;8.602;2022-10-16T17:30:46;16.31;74.19
66740;DHT22;53653;52.188;8.602;2022-10-16T17:33:12;16.38;73.68
66740;DHT22;53653;52.188;8.602;2022-10-16T17:35:43;16.39;73.89
66740;DHT22;53653;52.188;8.602;2022-10-16T17:38:09;16.41;74.08
66740;DHT22;53653;52.188;8.602;2022-10-16T17:40:35;16.41;74.10
66740;DHT22;53653;52.188;8.602;2022-10-16T17:43:01;16.38;74.41
66740;DHT22;53653;52.188;8.602;2022-10-16T17:45:27;16.26;74.75